sensor_id;sensor_type;location;lat;lon;timestamp;temperature;humidity
33803;DHT22;20110;53.120;5.786;2023-02-28T00:00:50;2.00;99.90
33803;DHT22;20110;53.120;5.786;2023-02-28T00:03:16;2.10;99.90
33803;DHT22;20110;53.120;5.786;2023-02-28T00:05:42;2.20;99.90
33803;DHT22;20110;53.120;5.786;2023-02-28T00:08:09;2.30;99.90
33803;DHT22;20110;53.120;5.786;2023-02-28T00:10:35;2.30;99.90
33803;DHT22;20110;53.120;5.786;2023-02-28T00:13:04;1.50;99.90
33803;DHT22;20110;53.120;5.786;2023-02-28T00:15:32;0.80;99.90
33803;DHT22;20110;53.120;5.786;2023-02-28T00:17:59;0.60;99.90
33803;DHT22;20110;53.120;5.786;2023-02-28T00:20:25;0.60;99.90
33803;DHT22;20110;53.120;5.786;2023-02-28T00:22:52;0.40;99.90
33803;DHT22;20110;53.120;5.786;2023-02-28T00:25:24;0.30;99.90
33803;DHT22;20110;53.120;5.786;2023-02-28T00:27:50;0.40;99.90
33803;DHT22;20110;53.120;5.786;2023-02-28T00:30:21;0.10;99.90
33803;DHT22;20110;53.120;5.786;2023-02-28T00:32:49;0.30;99.90
33803;DHT22;20110;53.120;5.786;2023-02-28T00:35:16;0.70;99.90
33803;DHT22;20110;53.120;5.786;2023-02-28T00:37:43;0.80;99.90
33803;DHT22;20110;53.120;5.786;2023-02-28T00:40:09;1.30;99.90
33803;DHT22;20110;53.120;5.786;2023-02-28T00:42:36;1.70;99.90
33803;DHT22;20110;53.120;5.786;2023-02-28T00:45:03;2.00;99.90
33803;DHT22;20110;53.120;5.786;2023-02-28T00:47:30;2.20;99.90
33803;DHT22;20110;53.120;5.786;2023-02-28T00:49:57;2.30;99.90
33803;DHT22;20110;53.120;5.786;2023-02-28T00:52:23;2.40;99.90
33803;DHT22;20110;53.120;5.786;2023-02-28T00:54:49;2.40;99.90
33803;DHT22;20110;53.120;5.786;2023-02-28T00:57:14;2.40;99.90
33803;DHT22;20110;53.120;5.786;2023-02-28T00:59:40;2.40;99.90
33803;DHT22;20110;53.120;5.786;2023-02-28T01:02:06;2.60;99.90
33803;DHT22;20110;53.120;5.786;2023-02-28T01:04:32;2.60;99.90
33803;DHT22;20110;53.120;5.786;2023-02-28T01:06:58;2.70;99.90
33803;DHT22;20110;53.120;5.786;2023-02-28T01:09:24;2.70;99.90
33803;DHT22;20110;53.120;5.786;2023-02-28T01:11:49;2.50;99.90
33803;DHT22;20110;53.120;5.786;2023-02-28T01:14:17;1.80;99.90
33803;DHT22;20110;53.120;5.786;2023-02-28T01:16:43;1.00;99.90
33803;DHT22;20110;53.120;5.786;2023-02-28T01:19:10;0.90;99.90
33803;DHT22;20110;53.120;5.786;2023-02-28T01:21:36;0.70;99.90
33803;DHT22;20110;53.120;5.786;2023-02-28T01:24:03;0.50;99.90
33803;DHT22;20110;53.120;5.786;2023-02-28T01:26:30;0.60;99.90
33803;DHT22;20110;53.120;5.786;2023-02-28T01:28:56;0.70;99.90
33803;DHT22;20110;53.120;5.786;2023-02-28T01:31:23;0.90;99.90
33803;DHT22;20110;53.120;5.786;2023-02-28T01:33:49;0.90;99.90
33803;DHT22;20110;53.120;5.786;2023-02-28T01:36:20;1.00;99.90
33803;DHT22;20110;53.120;5.786;2023-02-28T01:38:48;0.90;99.90
33803;DHT22;20110;53.120;5.786;2023-02-28T01:41:19;0.80;99.90
33803;DHT22;20110;53.120;5.786;2023-02-28T01:47:05;0.80;99.90
33803;DHT22;20110;53.120;5.786;2023-02-28T01:49:31;0.60;99.90
33803;DHT22;20110;53.120;5.786;2023-02-28T01:51:57;0.70;99.90
33803;DHT22;20110;53.120;5.786;2023-02-28T01:54:28;0.80;99.90
33803;DHT22;20110;53.120;5.786;2023-02-28T01:57:05;1.30;99.90
33803;DHT22;20110;53.120;5.786;2023-02-28T01:59:59;1.90;99.90
33803;DHT22;20110;53.120;5.786;2023-02-28T02:02:27;1.50;99.90
33803;DHT22;20110;53.120;5.786;2023-02-28T02:05:04;1.30;99.90
33803;DHT22;20110;53.120;5.786;2023-02-28T02:07:37;1.20;99.90
33803;DHT22;20110;53.120;5.786;2023-02-28T02:10:15;1.00;99.90
33803;DHT22;20110;53.120;5.786;2023-02-28T02:37:24;0.80;99.90
33803;DHT22;20110;53.120;5.786;2023-02-28T02:46:42;0.90;99.90
33803;DHT22;20110;53.120;5.786;2023-02-28T02:49:16;1.10;99.90
33803;DHT22;20110;53.120;5.786;2023-02-28T02:51:52;1.10;99.90
33803;DHT22;20110;53.120;5.786;2023-02-28T02:54:28;1.20;99.90
33803;DHT22;20110;53.120;5.786;2023-02-28T02:56:59;1.40;99.90
33803;DHT22;20110;53.120;5.786;2023-02-28T02:59:30;1.40;99.90
33803;DHT22;20110;53.120;5.786;2023-02-28T03:02:01;1.80;99.90
33803;DHT22;20110;53.120;5.786;2023-02-28T03:04:37;2.20;99.90
33803;DHT22;20110;53.120;5.786;2023-02-28T03:07:08;2.50;99.90
33803;DHT22;20110;53.120;5.786;2023-02-28T03:09:34;2.70;99.90
33803;DHT22;20110;53.120;5.786;2023-02-28T03:12:03;2.80;99.90
33803;DHT22;20110;53.120;5.786;2023-02-28T03:17:23;2.20;99.90
33803;DHT22;20110;53.120;5.786;2023-02-28T03:22:49;1.30;99.90
33803;DHT22;20110;53.120;5.786;2023-02-28T03:25:56;1.00;99.90
33803;DHT22;20110;53.120;5.786;2023-02-28T03:29:04;0.90;99.90
33803;DHT22;20110;53.120;5.786;2023-02-28T03:31:48;0.90;99.90
33803;DHT22;20110;53.120;5.786;2023-02-28T03:34:32;0.80;99.90
33803;DHT22;20110;53.120;5.786;2023-02-28T03:37:10;0.80;99.90
33803;DHT22;20110;53.120;5.786;2023-02-28T03:39:56;0.70;99.90
33803;DHT22;20110;53.120;5.786;2023-02-28T03:42:31;0.80;99.90
33803;DHT22;20110;53.120;5.786;2023-02-28T03:45:08;0.80;99.90
33803;DHT22;20110;53.120;5.786;2023-02-28T03:47:53;1.00;99.90
33803;DHT22;20110;53.120;5.786;2023-02-28T03:50:44;1.00;99.90
33803;DHT22;20110;53.120;5.786;2023-02-28T03:53:24;1.10;99.90
33803;DHT22;20110;53.120;5.786;2023-02-28T03:56:07;1.10;99.90
33803;DHT22;20110;53.120;5.786;2023-02-28T03:58:47;1.10;99.90
33803;DHT22;20110;53.120;5.786;2023-02-28T04:01:35;1.20;99.90
33803;DHT22;20110;53.120;5.786;2023-02-28T04:04:04;1.40;99.90
33803;DHT22;20110;53.120;5.786;2023-02-28T04:06:32;2.30;99.90
33803;DHT22;20110;53.120;5.786;2023-02-28T04:08:59;2.20;99.90
33803;DHT22;20110;53.120;5.786;2023-02-28T04:11:46;1.90;99.90
33803;DHT22;20110;53.120;5.786;2023-02-28T04:14:17;1.60;99.90
33803;DHT22;20110;53.120;5.786;2023-02-28T04:16:44;1.40;99.90
33803;DHT22;20110;53.120;5.786;2023-02-28T04:19:11;1.30;99.90
33803;DHT22;20110;53.120;5.786;2023-02-28T04:21:44;1.50;99.90
33803;DHT22;20110;53.120;5.786;2023-02-28T04:24:20;1.40;99.90
33803;DHT22;20110;53.120;5.786;2023-02-28T04:26:50;1.30;99.90
33803;DHT22;20110;53.120;5.786;2023-02-28T04:29:30;1.30;99.90
33803;DHT22;20110;53.120;5.786;2023-02-28T04:32:00;1.40;99.90
33803;DHT22;20110;53.120;5.786;2023-02-28T04:34:29;1.40;99.90
33803;DHT22;20110;53.120;5.786;2023-02-28T04:36:56;1.40;99.90
33803;DHT22;20110;53.120;5.786;2023-02-28T04:39:23;1.40;99.90
33803;DHT22;20110;53.120;5.786;2023-02-28T04:41:50;1.40;99.90
33803;DHT22;20110;53.120;5.786;2023-02-28T04:44:16;1.40;99.90
33803;DHT22;20110;53.120;5.786;2023-02-28T04:46:43;1.30;99.90
33803;DHT22;20110;53.120;5.786;2023-02-28T04:49:12;1.40;99.90
33803;DHT22;20110;53.120;5.786;2023-02-28T04:51:38;1.40;99.90
33803;DHT22;20110;53.120;5.786;2023-02-28T04:54:05;1.50;99.90
33803;DHT22;20110;53.120;5.786;2023-02-28T04:56:31;1.50;99.90
33803;DHT22;20110;53.120;5.786;2023-02-28T04:58:56;1.60;99.90
33803;DHT22;20110;53.120;5.786;2023-02-28T05:01:28;1.60;99.90
33803;DHT22;20110;53.120;5.786;2023-02-28T05:03:57;1.70;99.90
33803;DHT22;20110;53.120;5.786;2023-02-28T05:06:27;1.70;99.90
33803;DHT22;20110;53.120;5.786;2023-02-28T05:08:55;1.70;99.90
33803;DHT22;20110;53.120;5.786;2023-02-28T05:11:28;1.80;99.90
33803;DHT22;20110;53.120;5.786;2023-02-28T05:14:08;2.20;99.90
33803;DHT22;20110;53.120;5.786;2023-02-28T05:16:37;2.60;99.90
33803;DHT22;20110;53.120;5.786;2023-02-28T05:19:03;2.90;99.90
33803;DHT22;20110;53.120;5.786;2023-02-28T05:21:40;3.10;99.90
33803;DHT22;20110;53.120;5.786;2023-02-28T05:24:11;3.20;99.90
33803;DHT22;20110;53.120;5.786;2023-02-28T05:26:40;3.30;99.90
33803;DHT22;20110;53.120;5.786;2023-02-28T05:29:07;3.30;99.90
33803;DHT22;20110;53.120;5.786;2023-02-28T05:31:34;3.40;99.90
33803;DHT22;20110;53.120;5.786;2023-02-28T05:34:01;2.80;99.90
33803;DHT22;20110;53.120;5.786;2023-02-28T05:36:29;2.50;99.90
33803;DHT22;20110;53.120;5.786;2023-02-28T05:38:55;2.70;99.90
33803;DHT22;20110;53.120;5.786;2023-02-28T05:41:21;2.50;99.90
33803;DHT22;20110;53.120;5.786;2023-02-28T05:43:48;2.40;99.90
33803;DHT22;20110;53.120;5.786;2023-02-28T05:46:15;2.10;99.90
33803;DHT22;20110;53.120;5.786;2023-02-28T05:48:42;2.10;99.90
33803;DHT22;20110;53.120;5.786;2023-02-28T05:51:11;2.30;99.90
33803;DHT22;20110;53.120;5.786;2023-02-28T05:53:37;2.10;99.90
33803;DHT22;20110;53.120;5.786;2023-02-28T05:56:03;1.90;99.90
33803;DHT22;20110;53.120;5.786;2023-02-28T05:58:30;1.80;99.90
33803;DHT22;20110;53.120;5.786;2023-02-28T06:01:00;1.80;99.90
33803;DHT22;20110;53.120;5.786;2023-02-28T06:03:50;1.80;99.90
33803;DHT22;20110;53.120;5.786;2023-02-28T06:06:16;1.70;99.90
33803;DHT22;20110;53.120;5.786;2023-02-28T06:08:42;1.70;99.90
33803;DHT22;20110;53.120;5.786;2023-02-28T06:11:10;1.80;99.90
33803;DHT22;20110;53.120;5.786;2023-02-28T06:13:35;1.70;99.90
33803;DHT22;20110;53.120;5.786;2023-02-28T06:16:01;1.60;99.90
33803;DHT22;20110;53.120;5.786;2023-02-28T06:18:27;1.50;99.90
33803;DHT22;20110;53.120;5.786;2023-02-28T06:20:53;1.50;99.90
33803;DHT22;20110;53.120;5.786;2023-02-28T06:23:20;1.60;99.90
33803;DHT22;20110;53.120;5.786;2023-02-28T06:25:47;1.50;99.90
33803;DHT22;20110;53.120;5.786;2023-02-28T06:28:13;1.50;99.90
33803;DHT22;20110;53.120;5.786;2023-02-28T06:30:39;1.50;99.90
33803;DHT22;20110;53.120;5.786;2023-02-28T06:33:05;1.40;99.90
33803;DHT22;20110;53.120;5.786;2023-02-28T06:35:31;1.30;99.90
33803;DHT22;20110;53.120;5.786;2023-02-28T06:37:57;1.30;99.90
33803;DHT22;20110;53.120;5.786;2023-02-28T06:40:23;1.20;99.90
33803;DHT22;20110;53.120;5.786;2023-02-28T06:42:49;1.30;99.90
33803;DHT22;20110;53.120;5.786;2023-02-28T06:45:15;1.20;99.90
33803;DHT22;20110;53.120;5.786;2023-02-28T06:47:41;1.30;99.90
33803;DHT22;20110;53.120;5.786;2023-02-28T06:50:12;1.30;99.90
33803;DHT22;20110;53.120;5.786;2023-02-28T06:52:38;1.20;99.90
33803;DHT22;20110;53.120;5.786;2023-02-28T06:55:06;1.20;99.90
33803;DHT22;20110;53.120;5.786;2023-02-28T06:57:34;1.10;99.90
33803;DHT22;20110;53.120;5.786;2023-02-28T07:00:04;1.20;99.90
33803;DHT22;20110;53.120;5.786;2023-02-28T07:02:34;1.20;99.90
33803;DHT22;20110;53.120;5.786;2023-02-28T07:05:01;1.20;99.90
33803;DHT22;20110;53.120;5.786;2023-02-28T07:07:27;1.00;99.90
33803;DHT22;20110;53.120;5.786;2023-02-28T07:09:53;0.90;99.90
33803;DHT22;20110;53.120;5.786;2023-02-28T07:12:18;0.90;99.90
33803;DHT22;20110;53.120;5.786;2023-02-28T07:14:44;1.00;99.90
33803;DHT22;20110;53.120;5.786;2023-02-28T07:17:11;0.80;99.90
33803;DHT22;20110;53.120;5.786;2023-02-28T07:19:38;0.80;99.90
33803;DHT22;20110;53.120;5.786;2023-02-28T07:22:04;0.80;99.90
33803;DHT22;20110;53.120;5.786;2023-02-28T07:24:31;0.80;99.90
33803;DHT22;20110;53.120;5.786;2023-02-28T07:26:57;0.90;99.90
33803;DHT22;20110;53.120;5.786;2023-02-28T07:29:24;0.80;99.90
33803;DHT22;20110;53.120;5.786;2023-02-28T07:31:50;0.70;99.90
33803;DHT22;20110;53.120;5.786;2023-02-28T07:34:19;0.70;99.90
33803;DHT22;20110;53.120;5.786;2023-02-28T07:36:45;0.70;99.90
33803;DHT22;20110;53.120;5.786;2023-02-28T07:39:11;0.70;99.90
33803;DHT22;20110;53.120;5.786;2023-02-28T07:41:37;0.70;99.90
33803;DHT22;20110;53.120;5.786;2023-02-28T07:44:09;0.80;99.90
33803;DHT22;20110;53.120;5.786;2023-02-28T07:46:36;0.80;99.90
33803;DHT22;20110;53.120;5.786;2023-02-28T07:49:02;0.80;99.90
33803;DHT22;20110;53.120;5.786;2023-02-28T07:51:29;0.80;99.90
33803;DHT22;20110;53.120;5.786;2023-02-28T07:53:56;0.80;99.90
33803;DHT22;20110;53.120;5.786;2023-02-28T07:56:22;0.90;99.90
33803;DHT22;20110;53.120;5.786;2023-02-28T07:58:48;0.90;99.90
33803;DHT22;20110;53.120;5.786;2023-02-28T08:01:15;1.00;99.90
33803;DHT22;20110;53.120;5.786;2023-02-28T08:03:42;0.80;99.90
33803;DHT22;20110;53.120;5.786;2023-02-28T08:06:16;0.70;99.90
33803;DHT22;20110;53.120;5.786;2023-02-28T08:08:44;0.70;99.90
33803;DHT22;20110;53.120;5.786;2023-02-28T08:11:10;0.80;99.90
33803;DHT22;20110;53.120;5.786;2023-02-28T08:13:36;0.70;99.90
33803;DHT22;20110;53.120;5.786;2023-02-28T08:16:03;0.70;99.90
33803;DHT22;20110;53.120;5.786;2023-02-28T08:18:29;0.80;99.90
33803;DHT22;20110;53.120;5.786;2023-02-28T08:20:55;0.70;99.90
33803;DHT22;20110;53.120;5.786;2023-02-28T08:23:21;0.70;99.90
33803;DHT22;20110;53.120;5.786;2023-02-28T08:25:57;0.70;99.90
33803;DHT22;20110;53.120;5.786;2023-02-28T08:28:23;0.80;99.90
33803;DHT22;20110;53.120;5.786;2023-02-28T08:30:49;0.80;99.90
33803;DHT22;20110;53.120;5.786;2023-02-28T08:33:15;0.80;99.90
33803;DHT22;20110;53.120;5.786;2023-02-28T08:35:41;0.80;99.90
33803;DHT22;20110;53.120;5.786;2023-02-28T08:38:07;0.90;99.90
33803;DHT22;20110;53.120;5.786;2023-02-28T08:40:33;0.80;99.90
33803;DHT22;20110;53.120;5.786;2023-02-28T08:42:58;1.00;99.90
33803;DHT22;20110;53.120;5.786;2023-02-28T08:45:25;0.90;99.90
33803;DHT22;20110;53.120;5.786;2023-02-28T08:47:51;1.00;99.90
33803;DHT22;20110;53.120;5.786;2023-02-28T08:50:18;0.90;99.90
33803;DHT22;20110;53.120;5.786;2023-02-28T08:52:44;1.00;99.90
33803;DHT22;20110;53.120;5.786;2023-02-28T08:55:10;1.00;99.90
33803;DHT22;20110;53.120;5.786;2023-02-28T08:57:36;1.30;99.90
33803;DHT22;20110;53.120;5.786;2023-02-28T09:00:03;1.40;99.90
33803;DHT22;20110;53.120;5.786;2023-02-28T09:02:33;1.30;99.90
33803;DHT22;20110;53.120;5.786;2023-02-28T09:04:59;1.40;99.90
33803;DHT22;20110;53.120;5.786;2023-02-28T09:07:25;1.50;99.90
33803;DHT22;20110;53.120;5.786;2023-02-28T09:09:51;1.60;99.90
33803;DHT22;20110;53.120;5.786;2023-02-28T09:12:22;1.60;99.90
33803;DHT22;20110;53.120;5.786;2023-02-28T09:14:49;1.60;99.90
33803;DHT22;20110;53.120;5.786;2023-02-28T09:17:15;1.50;99.90
33803;DHT22;20110;53.120;5.786;2023-02-28T09:19:41;1.70;99.90
33803;DHT22;20110;53.120;5.786;2023-02-28T09:22:08;1.90;99.90
33803;DHT22;20110;53.120;5.786;2023-02-28T09:24:36;1.70;99.90
33803;DHT22;20110;53.120;5.786;2023-02-28T09:27:03;1.80;99.90
33803;DHT22;20110;53.120;5.786;2023-02-28T09:29:30;1.70;99.90
33803;DHT22;20110;53.120;5.786;2023-02-28T09:31:57;2.10;99.90
33803;DHT22;20110;53.120;5.786;2023-02-28T09:34:27;2.30;99.90
33803;DHT22;20110;53.120;5.786;2023-02-28T09:36:54;2.10;99.90
33803;DHT22;20110;53.120;5.786;2023-02-28T09:39:22;2.30;99.90
33803;DHT22;20110;53.120;5.786;2023-02-28T09:41:51;2.40;99.90
33803;DHT22;20110;53.120;5.786;2023-02-28T09:44:31;2.20;99.90
33803;DHT22;20110;53.120;5.786;2023-02-28T09:50:03;2.40;99.90
33803;DHT22;20110;53.120;5.786;2023-02-28T09:52:45;2.50;99.90
33803;DHT22;20110;53.120;5.786;2023-02-28T09:57:41;2.50;99.90
33803;DHT22;20110;53.120;5.786;2023-02-28T10:00:34;2.60;99.90
33803;DHT22;20110;53.120;5.786;2023-02-28T10:11:20;3.10;99.90
33803;DHT22;20110;53.120;5.786;2023-02-28T10:14:14;3.10;99.90
33803;DHT22;20110;53.120;5.786;2023-02-28T10:16:47;3.00;99.90
33803;DHT22;20110;53.120;5.786;2023-02-28T10:19:28;3.10;99.90
33803;DHT22;20110;53.120;5.786;2023-02-28T10:24:48;3.00;99.90
33803;DHT22;20110;53.120;5.786;2023-02-28T10:27:24;3.10;99.90
33803;DHT22;20110;53.120;5.786;2023-02-28T10:29:59;3.20;99.90
33803;DHT22;20110;53.120;5.786;2023-02-28T10:32:30;4.00;99.90
33803;DHT22;20110;53.120;5.786;2023-02-28T10:35:17;4.80;99.90
33803;DHT22;20110;53.120;5.786;2023-02-28T10:37:51;5.10;99.90
33803;DHT22;20110;53.120;5.786;2023-02-28T10:43:00;5.40;99.90
33803;DHT22;20110;53.120;5.786;2023-02-28T10:45:28;5.40;99.90
33803;DHT22;20110;53.120;5.786;2023-02-28T10:48:06;5.50;99.90
33803;DHT22;20110;53.120;5.786;2023-02-28T10:50:56;5.80;99.90
33803;DHT22;20110;53.120;5.786;2023-02-28T10:56:19;6.10;99.90
33803;DHT22;20110;53.120;5.786;2023-02-28T10:58:55;5.90;99.90
33803;DHT22;20110;53.120;5.786;2023-02-28T11:01:40;6.30;99.90
33803;DHT22;20110;53.120;5.786;2023-02-28T11:07:18;6.30;99.90
33803;DHT22;20110;53.120;5.786;2023-02-28T11:09:48;5.70;99.90
33803;DHT22;20110;53.120;5.786;2023-02-28T11:12:27;5.70;99.90
33803;DHT22;20110;53.120;5.786;2023-02-28T11:20:38;6.00;98.00
33803;DHT22;20110;53.120;5.786;2023-02-28T11:23:11;6.70;99.90
33803;DHT22;20110;53.120;5.786;2023-02-28T11:25:39;6.70;98.20
33803;DHT22;20110;53.120;5.786;2023-02-28T11:31:14;7.20;91.50
33803;DHT22;20110;53.120;5.786;2023-02-28T11:33:47;6.90;89.60
33803;DHT22;20110;53.120;5.786;2023-02-28T11:36:29;6.50;92.00
33803;DHT22;20110;53.120;5.786;2023-02-28T11:38:59;6.80;93.90
33803;DHT22;20110;53.120;5.786;2023-02-28T11:42:07;6.70;92.20
33803;DHT22;20110;53.120;5.786;2023-02-28T11:45:15;6.30;92.60
33803;DHT22;20110;53.120;5.786;2023-02-28T11:53:48;7.40;93.70
33803;DHT22;20110;53.120;5.786;2023-02-28T12:09:46;7.60;90.80
33803;DHT22;20110;53.120;5.786;2023-02-28T12:21:24;8.80;93.70
33803;DHT22;20110;53.120;5.786;2023-02-28T12:24:05;7.90;90.40
33803;DHT22;20110;53.120;5.786;2023-02-28T12:26:42;8.30;93.70
33803;DHT22;20110;53.120;5.786;2023-02-28T12:32:22;8.70;88.50
33803;DHT22;20110;53.120;5.786;2023-02-28T12:41:00;9.00;89.50
33803;DHT22;20110;53.120;5.786;2023-02-28T12:43:51;8.70;85.80
33803;DHT22;20110;53.120;5.786;2023-02-28T12:46:43;9.60;88.80
33803;DHT22;20110;53.120;5.786;2023-02-28T12:49:22;9.90;88.50
33803;DHT22;20110;53.120;5.786;2023-02-28T12:51:53;9.80;87.30
33803;DHT22;20110;53.120;5.786;2023-02-28T12:54:40;10.20;86.60
33803;DHT22;20110;53.120;5.786;2023-02-28T12:57:28;10.30;85.00
33803;DHT22;20110;53.120;5.786;2023-02-28T13:00:19;9.60;85.60
33803;DHT22;20110;53.120;5.786;2023-02-28T13:09:28;7.70;87.70
33803;DHT22;20110;53.120;5.786;2023-02-28T13:11:56;8.10;87.30
33803;DHT22;20110;53.120;5.786;2023-02-28T13:23:00;8.80;86.30
33803;DHT22;20110;53.120;5.786;2023-02-28T13:27:51;8.80;88.00
33803;DHT22;20110;53.120;5.786;2023-02-28T13:38:41;8.80;82.60
33803;DHT22;20110;53.120;5.786;2023-02-28T13:44:07;7.70;80.80
33803;DHT22;20110;53.120;5.786;2023-02-28T13:54:45;8.10;80.30
33803;DHT22;20110;53.120;5.786;2023-02-28T14:02:32;8.60;83.80
33803;DHT22;20110;53.120;5.786;2023-02-28T14:05:21;8.60;82.40
33803;DHT22;20110;53.120;5.786;2023-02-28T14:07:57;8.00;79.70
33803;DHT22;20110;53.120;5.786;2023-02-28T14:10:36;8.00;81.00
33803;DHT22;20110;53.120;5.786;2023-02-28T14:13:42;8.30;82.20
33803;DHT22;20110;53.120;5.786;2023-02-28T14:16:27;8.20;82.20
33803;DHT22;20110;53.120;5.786;2023-02-28T14:19:16;8.30;85.50
33803;DHT22;20110;53.120;5.786;2023-02-28T14:22:05;8.30;84.30
33803;DHT22;20110;53.120;5.786;2023-02-28T14:25:38;8.30;83.00
33803;DHT22;20110;53.120;5.786;2023-02-28T14:28:13;8.00;85.90
33803;DHT22;20110;53.120;5.786;2023-02-28T14:31:18;8.00;82.90
33803;DHT22;20110;53.120;5.786;2023-02-28T14:36:58;7.70;85.90
33803;DHT22;20110;53.120;5.786;2023-02-28T14:39:28;7.70;83.70
33803;DHT22;20110;53.120;5.786;2023-02-28T14:41:58;7.60;83.60
33803;DHT22;20110;53.120;5.786;2023-02-28T14:44:29;7.60;85.60
33803;DHT22;20110;53.120;5.786;2023-02-28T14:46:59;7.60;86.40
33803;DHT22;20110;53.120;5.786;2023-02-28T14:49:35;7.60;85.60
33803;DHT22;20110;53.120;5.786;2023-02-28T14:52:26;7.50;84.10
33803;DHT22;20110;53.120;5.786;2023-02-28T14:54:54;7.30;85.60
33803;DHT22;20110;53.120;5.786;2023-02-28T14:57:27;7.20;88.30
33803;DHT22;20110;53.120;5.786;2023-02-28T15:00:19;7.10;86.30
33803;DHT22;20110;53.120;5.786;2023-02-28T15:02:48;6.90;87.50
33803;DHT22;20110;53.120;5.786;2023-02-28T15:07:43;7.00;90.50
33803;DHT22;20110;53.120;5.786;2023-02-28T15:12:54;6.90;90.00
33803;DHT22;20110;53.120;5.786;2023-02-28T15:15:43;6.90;89.90
33803;DHT22;20110;53.120;5.786;2023-02-28T15:20:57;7.00;91.50
33803;DHT22;20110;53.120;5.786;2023-02-28T15:23:29;6.90;90.70
33803;DHT22;20110;53.120;5.786;2023-02-28T15:25:56;6.80;91.50
33803;DHT22;20110;53.120;5.786;2023-02-28T15:28:23;6.70;90.80
33803;DHT22;20110;53.120;5.786;2023-02-28T15:30:57;6.50;91.30
33803;DHT22;20110;53.120;5.786;2023-02-28T15:33:33;6.40;91.70
33803;DHT22;20110;53.120;5.786;2023-02-28T15:36:28;6.30;92.60
33803;DHT22;20110;53.120;5.786;2023-02-28T15:38:57;6.10;92.50
33803;DHT22;20110;53.120;5.786;2023-02-28T15:44:25;6.00;92.00
33803;DHT22;20110;53.120;5.786;2023-02-28T15:47:05;5.90;92.50
33803;DHT22;20110;53.120;5.786;2023-02-28T15:49:58;5.70;93.70
33803;DHT22;20110;53.120;5.786;2023-02-28T15:52:42;5.50;94.40
33803;DHT22;20110;53.120;5.786;2023-02-28T15:55:26;5.40;95.30
33803;DHT22;20110;53.120;5.786;2023-02-28T15:57:56;5.40;95.30
33803;DHT22;20110;53.120;5.786;2023-02-28T16:00:30;5.30;94.90
33803;DHT22;20110;53.120;5.786;2023-02-28T16:02:58;5.30;96.50
33803;DHT22;20110;53.120;5.786;2023-02-28T16:05:27;5.30;98.60
33803;DHT22;20110;53.120;5.786;2023-02-28T16:08:13;5.30;98.80
33803;DHT22;20110;53.120;5.786;2023-02-28T16:10:40;5.20;99.70
33803;DHT22;20110;53.120;5.786;2023-02-28T16:13:08;5.20;99.90
33803;DHT22;20110;53.120;5.786;2023-02-28T16:15:39;5.10;99.50
33803;DHT22;20110;53.120;5.786;2023-02-28T16:18:10;5.10;99.60
33803;DHT22;20110;53.120;5.786;2023-02-28T16:20:37;5.00;99.90
33803;DHT22;20110;53.120;5.786;2023-02-28T16:23:04;5.00;99.90
33803;DHT22;20110;53.120;5.786;2023-02-28T16:25:42;4.90;99.90
33803;DHT22;20110;53.120;5.786;2023-02-28T16:28:25;4.80;99.90
33803;DHT22;20110;53.120;5.786;2023-02-28T16:31:00;4.60;99.90
33803;DHT22;20110;53.120;5.786;2023-02-28T16:33:28;4.50;99.90
33803;DHT22;20110;53.120;5.786;2023-02-28T16:35:55;4.40;99.90
33803;DHT22;20110;53.120;5.786;2023-02-28T16:38:21;4.30;99.90
33803;DHT22;20110;53.120;5.786;2023-02-28T16:40:49;4.30;99.90
33803;DHT22;20110;53.120;5.786;2023-02-28T16:43:19;4.20;99.90
33803;DHT22;20110;53.120;5.786;2023-02-28T16:45:49;4.00;99.90
33803;DHT22;20110;53.120;5.786;2023-02-28T16:48:21;3.90;99.90
33803;DHT22;20110;53.120;5.786;2023-02-28T16:50:46;3.80;99.90
33803;DHT22;20110;53.120;5.786;2023-02-28T16:53:12;3.70;99.90
33803;DHT22;20110;53.120;5.786;2023-02-28T16:55:39;3.70;99.90
33803;DHT22;20110;53.120;5.786;2023-02-28T16:58:05;3.60;99.90
33803;DHT22;20110;53.120;5.786;2023-02-28T17:00:32;3.50;99.90
33803;DHT22;20110;53.120;5.786;2023-02-28T17:02:58;3.40;99.90
33803;DHT22;20110;53.120;5.786;2023-02-28T17:05:25;3.30;99.90
33803;DHT22;20110;53.120;5.786;2023-02-28T17:07:58;3.20;99.90
33803;DHT22;20110;53.120;5.786;2023-02-28T17:10:25;3.10;99.90
33803;DHT22;20110;53.120;5.786;2023-02-28T17:12:52;2.90;99.90
33803;DHT22;20110;53.120;5.786;2023-02-28T17:15:19;2.80;99.90
33803;DHT22;20110;53.120;5.786;2023-02-28T17:17:47;2.70;99.90
33803;DHT22;20110;53.120;5.786;2023-02-28T17:20:16;2.60;99.90
33803;DHT22;20110;53.120;5.786;2023-02-28T17:22:44;2.60;99.90
33803;DHT22;20110;53.120;5.786;2023-02-28T17:25:10;2.50;99.90
33803;DHT22;20110;53.120;5.786;2023-02-28T17:27:36;2.40;99.90
33803;DHT22;20110;53.120;5.786;2023-02-28T17:30:17;2.30;99.90
33803;DHT22;20110;53.120;5.786;2023-02-28T17:32:45;2.20;99.90
33803;DHT22;20110;53.120;5.786;2023-02-28T17:35:12;2.10;99.90
33803;DHT22;20110;53.120;5.786;2023-02-28T17:37:38;2.10;99.90
33803;DHT22;20110;53.120;5.786;2023-02-28T17:40:05;2.00;99.90
33803;DHT22;20110;53.120;5.786;2023-02-28T17:42:32;1.90;99.90
33803;DHT22;20110;53.120;5.786;2023-02-28T17:44:58;1.80;99.90
33803;DHT22;20110;53.120;5.786;2023-02-28T17:47:23;1.60;99.90
33803;DHT22;20110;53.120;5.786;2023-02-28T17:49:49;1.40;99.90
33803;DHT22;20110;53.120;5.786;2023-02-28T17:52:15;1.30;99.90
33803;DHT22;20110;53.120;5.786;2023-02-28T17:54:41;1.20;99.90
33803;DHT22;20110;53.120;5.786;2023-02-28T17:57:13;1.20;99.90
33803;DHT22;20110;53.120;5.786;2023-02-28T17:59:40;1.30;99.90
33803;DHT22;20110;53.120;5.786;2023-02-28T18:02:11;1.20;99.90
33803;DHT22;20110;53.120;5.786;2023-02-28T18:04:38;1.10;99.90
33803;DHT22;20110;53.120;5.786;2023-02-28T18:07:05;1.10;99.90
33803;DHT22;20110;53.120;5.786;2023-02-28T18:09:34;1.10;99.90
33803;DHT22;20110;53.120;5.786;2023-02-28T18:12:00;1.20;99.90
33803;DHT22;20110;53.120;5.786;2023-02-28T18:14:26;1.20;99.90
33803;DHT22;20110;53.120;5.786;2023-02-28T18:16:53;1.10;99.90
33803;DHT22;20110;53.120;5.786;2023-02-28T18:19:20;1.10;99.90
33803;DHT22;20110;53.120;5.786;2023-02-28T18:21:49;1.20;99.90
33803;DHT22;20110;53.120;5.786;2023-02-28T18:24:18;1.10;99.90
33803;DHT22;20110;53.120;5.786;2023-02-28T18:26:45;1.20;99.90
33803;DHT22;20110;53.120;5.786;2023-02-28T18:29:37;1.20;99.90
33803;DHT22;20110;53.120;5.786;2023-02-28T18:32:03;1.30;99.90
33803;DHT22;20110;53.120;5.786;2023-02-28T18:34:30;1.30;99.90
33803;DHT22;20110;53.120;5.786;2023-02-28T18:36:56;1.30;99.90
33803;DHT22;20110;53.120;5.786;2023-02-28T18:39:22;1.10;99.90
33803;DHT22;20110;53.120;5.786;2023-02-28T18:41:48;1.00;99.90
33803;DHT22;20110;53.120;5.786;2023-02-28T18:44:14;0.90;99.90
33803;DHT22;20110;53.120;5.786;2023-02-28T18:46:41;0.70;99.90
33803;DHT22;20110;53.120;5.786;2023-02-28T18:49:07;0.50;99.90
33803;DHT22;20110;53.120;5.786;2023-02-28T18:51:32;0.30;99.90
33803;DHT22;20110;53.120;5.786;2023-02-28T18:53:58;0.20;99.90
33803;DHT22;20110;53.120;5.786;2023-02-28T18:56:25;0.10;99.90
33803;DHT22;20110;53.120;5.786;2023-02-28T18:58:51;0.60;99.90